Time;durP1;ratioP1;P1;durP2;ratioP2;P2;SDS_P1;SDS_P2;PMS_P1;PMS_P2;Temp;Humidity;BMP_temperature;BMP_pressure;BME280_temperature;BME280_humidity;BME280_pressure;Samples;Min_cycle;Max_cycle;Signal;HPM_P1;HPM_P2
2023/12/23 00:01:12;;;;;;;0.40;0.40;;;4.70;99.90;;;;;;5052306;28;20028;-69
2023/12/23 00:03:38;;;;;;;0.30;0.30;;;4.60;99.90;;;;;;5051800;28;20032;-69
2023/12/23 00:06:04;;;;;;;1.25;0.50;;;4.60;99.90;;;;;;5052061;28;20123;-69
2023/12/23 00:08:29;;;;;;;0.82;0.50;;;4.50;99.90;;;;;;5052075;28;20035;-69
2023/12/23 00:10:55;;;;;;;0.90;0.40;;;4.50;99.90;;;;;;5051587;28;20033;-69
2023/12/23 00:13:21;;;;;;;1.15;0.50;;;4.50;99.90;;;;;;5052044;28;20434;-69
2023/12/23 00:15:47;;;;;;;2.55;0.70;;;4.40;99.90;;;;;;5051309;28;20025;-69
2023/12/23 00:18:12;;;;;;;0.55;0.40;;;4.40;99.90;;;;;;5050868;28;20029;-68
2023/12/23 00:20:38;;;;;;;0.82;0.50;;;4.40;99.90;;;;;;5051464;28;20099;-68
2023/12/23 00:23:04;;;;;;;0.40;0.40;;;4.40;99.90;;;;;;5051567;28;20025;-69
2023/12/23 00:25:29;;;;;;;0.30;0.30;;;4.30;99.90;;;;;;5052177;28;20028;-68
2023/12/23 00:27:55;;;;;;;0.28;0.20;;;4.30;99.90;;;;;;5051364;28;20021;-68
2023/12/23 00:30:21;;;;;;;0.40;0.40;;;4.30;99.90;;;;;;5051390;28;20029;-68
2023/12/23 00:32:46;;;;;;;0.43;0.40;;;4.30;99.90;;;;;;5051443;28;20096;-69
2023/12/23 00:35:13;;;;;;;0.50;0.40;;;4.30;99.90;;;;;;5051310;28;20029;-69
2023/12/23 00:37:38;;;;;;;0.38;0.38;;;4.30;99.90;;;;;;5055107;28;20029;-68
2023/12/23 00:40:06;;;;;;;0.40;0.40;;;4.20;99.90;;;;;;5055860;28;20028;-70
2023/12/23 00:42:32;;;;;;;2.20;0.30;;;4.20;99.90;;;;;;5055837;28;20021;-69
2023/12/23 00:44:57;;;;;;;0.82;0.50;;;4.20;99.90;;;;;;5055315;28;20029;-69
2023/12/23 00:47:23;;;;;;;0.60;0.50;;;4.10;99.90;;;;;;5055405;28;20061;-70
2023/12/23 00:49:49;;;;;;;0.52;0.50;;;4.10;99.90;;;;;;5055245;28;20044;-69
2023/12/23 00:52:14;;;;;;;0.95;0.60;;;4.00;99.90;;;;;;5055492;28;20033;-69
2023/12/23 00:54:40;;;;;;;0.40;0.40;;;4.00;99.90;;;;;;5053919;28;20031;-70
2023/12/23 00:57:06;;;;;;;0.50;0.38;;;3.90;99.90;;;;;;5055677;28;20104;-68
2023/12/23 00:59:31;;;;;;;0.50;0.45;;;3.90;99.90;;;;;;5055369;28;20140;-68
2023/12/23 01:01:57;;;;;;;1.10;0.30;;;3.90;99.90;;;;;;5054666;28;20229;-69
2023/12/23 01:04:22;;;;;;;0.60;0.50;;;3.90;99.90;;;;;;5055575;28;20032;-69
2023/12/23 01:06:49;;;;;;;0.65;0.43;;;3.80;99.90;;;;;;5053567;28;20414;-68
2023/12/23 01:09:15;;;;;;;0.50;0.50;;;3.80;99.90;;;;;;5055396;28;20056;-68
2023/12/23 01:11:40;;;;;;;0.65;0.40;;;3.80;99.90;;;;;;5054529;28;20075;-69
2023/12/23 01:14:06;;;;;;;0.50;0.50;;;3.80;99.90;;;;;;5055078;28;20132;-69
2023/12/23 01:16:32;;;;;;;0.45;0.45;;;3.80;99.90;;;;;;5054843;28;20359;-68
2023/12/23 01:18:58;;;;;;;1.65;0.40;;;3.80;99.90;;;;;;5054656;28;20032;-69
2023/12/23 01:21:23;;;;;;;0.30;0.30;;;3.80;99.90;;;;;;5055312;28;20405;-68
2023/12/23 01:23:49;;;;;;;0.52;0.50;;;3.80;99.90;;;;;;5054634;28;20033;-69
2023/12/23 01:26:15;;;;;;;1.42;0.40;;;3.80;99.90;;;;;;5054868;28;20025;-68
2023/12/23 01:28:40;;;;;;;0.85;0.55;;;3.80;99.90;;;;;;5054529;28;20071;-69
2023/12/23 01:31:06;;;;;;;0.20;0.20;;;3.80;99.90;;;;;;5054523;28;20041;-68
2023/12/23 01:33:31;;;;;;;0.30;0.30;;;3.80;99.90;;;;;;5054840;28;20028;-68
2023/12/23 01:35:57;;;;;;;0.40;0.30;;;3.80;99.90;;;;;;5054401;28;20021;-69
2023/12/23 01:38:23;;;;;;;0.20;0.20;;;3.90;99.90;;;;;;5054814;28;20024;-68
2023/12/23 01:40:48;;;;;;;0.30;0.30;;;3.80;99.90;;;;;;5055295;28;20024;-69
2023/12/23 01:43:14;;;;;;;0.50;0.30;;;3.80;99.90;;;;;;5074313;28;20025;-68
2023/12/23 01:45:40;;;;;;;0.50;0.30;;;3.90;99.90;;;;;;5072828;28;20052;-70
2023/12/23 01:48:09;;;;;;;0.15;0.15;;;3.90;99.90;;;;;;5073357;28;20055;-68
2023/12/23 01:50:34;;;;;;;0.20;0.20;;;3.90;99.90;;;;;;5074399;28;20036;-69
2023/12/23 01:53:01;;;;;;;0.75;0.30;;;3.90;99.90;;;;;;5074061;28;20035;-68
2023/12/23 01:55:27;;;;;;;0.32;0.30;;;3.90;99.90;;;;;;5074351;28;20070;-68
2023/12/23 01:57:54;;;;;;;0.47;0.30;;;3.90;99.90;;;;;;5074061;28;20032;-68
2023/12/23 02:00:22;;;;;;;0.82;0.40;;;3.90;99.90;;;;;;5073897;28;20405;-69
2023/12/23 02:02:47;;;;;;;0.20;0.20;;;3.90;99.90;;;;;;5073954;28;20020;-69
2023/12/23 02:05:13;;;;;;;0.28;0.28;;;3.90;99.90;;;;;;5074354;28;20028;-69
2023/12/23 02:07:39;;;;;;;0.17;0.17;;;3.90;99.90;;;;;;5073916;28;20021;-69
2023/12/23 02:10:06;;;;;;;0.20;0.10;;;3.90;99.90;;;;;;5073729;28;20025;-68
2023/12/23 02:12:48;;;;;;;0.20;0.20;;;3.90;99.90;;;;;;5074204;28;20346;-69
2023/12/23 02:15:15;;;;;;;1.02;0.30;;;3.90;99.90;;;;;;5073910;28;20489;-71
2023/12/23 02:17:41;;;;;;;0.22;0.20;;;3.90;99.90;;;;;;5073970;28;20481;-68
2023/12/23 02:20:07;;;;;;;0.20;0.20;;;3.90;99.90;;;;;;5072670;28;20020;-69
2023/12/23 02:25:18;;;;;;;0.20;0.20;;;3.90;99.90;;;;;;5074050;28;20396;-70
2023/12/23 02:27:52;;;;;;;0.35;0.20;;;3.90;99.90;;;;;;5073095;28;20028;-70
2023/12/23 02:30:20;;;;;;;0.30;0.30;;;3.90;99.90;;;;;;5069957;28;20043;-68
2023/12/23 02:32:46;;;;;;;0.20;0.20;;;3.90;99.90;;;;;;5053219;28;20158;-68
2023/12/23 02:35:12;;;;;;;0.73;0.30;;;3.90;99.90;;;;;;5053623;28;20021;-68
2023/12/23 02:37:37;;;;;;;0.63;0.35;;;3.90;99.90;;;;;;5053607;28;20094;-69
2023/12/23 02:40:03;;;;;;;0.20;0.20;;;3.90;99.90;;;;;;5052798;28;20068;-68
2023/12/23 02:42:29;;;;;;;0.20;0.17;;;3.90;99.90;;;;;;5053314;28;20385;-68
2023/12/23 02:44:55;;;;;;;0.20;0.20;;;3.90;99.90;;;;;;5053098;28;20021;-68
2023/12/23 02:47:20;;;;;;;0.57;0.30;;;3.90;99.90;;;;;;5052754;28;20037;-69
2023/12/23 02:49:46;;;;;;;0.25;0.25;;;3.90;99.90;;;;;;5052742;28;20155;-68
2023/12/23 02:52:12;;;;;;;0.55;0.20;;;3.90;99.90;;;;;;5053256;28;20037;-68
2023/12/23 02:54:37;;;;;;;0.98;0.20;;;4.00;99.90;;;;;;5053064;28;20082;-69
2023/12/23 02:57:03;;;;;;;0.28;0.20;;;4.00;99.90;;;;;;5052750;28;20553;-69
2023/12/23 02:59:29;;;;;;;0.40;0.30;;;4.00;99.90;;;;;;5052941;28;20056;-69
2023/12/23 03:01:54;;;;;;;0.32;0.32;;;4.00;99.90;;;;;;5052849;28;20477;-68
2023/12/23 03:04:20;;;;;;;0.20;0.10;;;4.00;99.90;;;;;;5052808;28;20056;-68
2023/12/23 03:06:45;;;;;;;0.30;0.30;;;4.00;99.90;;;;;;5052601;28;20511;-71
2023/12/23 03:09:11;;;;;;;0.20;0.20;;;4.00;99.90;;;;;;5053374;28;20025;-68
2023/12/23 03:11:37;;;;;;;0.40;0.30;;;4.00;99.90;;;;;;5052756;28;20107;-67
2023/12/23 03:14:04;;;;;;;0.22;0.20;;;4.00;99.90;;;;;;5052596;28;20028;-69
2023/12/23 03:16:33;;;;;;;2.17;0.50;;;4.00;99.90;;;;;;5052744;28;20028;-69
2023/12/23 03:19:00;;;;;;;0.50;0.30;;;4.10;99.90;;;;;;5052449;28;20441;-69
2023/12/23 03:21:26;;;;;;;1.17;0.75;;;4.10;99.90;;;;;;5052749;28;20056;-69
2023/12/23 03:23:52;;;;;;;1.27;0.70;;;4.10;99.90;;;;;;5052674;28;20036;-68
2023/12/23 03:26:17;;;;;;;3.70;2.00;;;4.10;99.90;;;;;;5052445;28;20047;-67
2023/12/23 03:28:43;;;;;;;4.25;2.53;;;4.10;99.90;;;;;;5052639;28;20037;-68
2023/12/23 03:31:09;;;;;;;3.70;2.72;;;4.10;99.90;;;;;;5051836;28;20068;-68
2023/12/23 03:33:35;;;;;;;3.78;2.38;;;4.10;99.90;;;;;;5052436;28;20029;-68
2023/12/23 03:36:00;;;;;;;2.85;2.55;;;4.10;99.90;;;;;;5052331;28;20484;-69
2023/12/23 03:38:26;;;;;;;2.08;1.83;;;4.10;99.90;;;;;;5056090;28;20035;-69
2023/12/23 03:40:52;;;;;;;5.30;2.63;;;4.10;99.90;;;;;;5071992;28;20021;-69
2023/12/23 03:43:17;;;;;;;4.15;2.45;;;4.10;99.90;;;;;;5072241;28;20047;-69
2023/12/23 03:45:43;;;;;;;3.53;2.90;;;4.10;99.90;;;;;;5072270;28;20089;-69
2023/12/23 03:48:09;;;;;;;3.00;2.70;;;4.10;99.90;;;;;;5072074;28;20501;-69
2023/12/23 03:50:35;;;;;;;3.75;2.75;;;4.10;99.90;;;;;;5072324;28;20036;-69
2023/12/23 03:53:01;;;;;;;2.85;2.50;;;4.10;99.90;;;;;;5070923;28;20054;-69
2023/12/23 03:55:32;;;;;;;4.80;2.60;;;4.00;99.90;;;;;;5072393;28;20025;-69
2023/12/23 03:58:03;;;;;;;3.03;2.70;;;4.00;99.90;;;;;;5071911;28;20031;-69
2023/12/23 04:00:30;;;;;;;4.15;1.90;;;4.00;99.90;;;;;;5071936;28;20147;-68
2023/12/23 04:02:57;;;;;;;3.10;1.70;;;4.00;99.90;;;;;;5070375;28;20397;-68
2023/12/23 04:05:22;;;;;;;1.23;1.00;;;4.10;99.90;;;;;;5072431;28;20116;-68
2023/12/23 04:07:49;;;;;;;0.57;0.57;;;4.10;99.90;;;;;;5072218;28;20482;-68
2023/12/23 04:10:15;;;;;;;0.20;0.20;;;4.20;99.90;;;;;;5071606;28;20029;-68
2023/12/23 04:12:41;;;;;;;0.40;0.40;;;4.40;99.90;;;;;;5054279;28;20036;-68
2023/12/23 04:15:07;;;;;;;0.30;0.30;;;4.60;99.90;;;;;;5071782;28;20025;-69
2023/12/23 04:17:34;;;;;;;0.20;0.20;;;4.70;99.90;;;;;;5071986;28;20029;-69
2023/12/23 04:20:00;;;;;;;0.68;0.30;;;4.90;99.90;;;;;;5071360;28;20020;-68
2023/12/23 04:22:25;;;;;;;0.50;0.40;;;5.10;99.90;;;;;;5057919;28;20028;-69
2023/12/23 04:24:51;;;;;;;0.20;0.20;;;5.20;99.90;;;;;;5051633;28;20052;-70
2023/12/23 04:27:17;;;;;;;0.15;0.15;;;5.30;99.90;;;;;;5051672;28;20377;-69
2023/12/23 04:29:43;;;;;;;0.57;0.20;;;5.30;99.90;;;;;;5051936;28;20025;-69
2023/12/23 04:32:09;;;;;;;0.40;0.20;;;5.40;99.90;;;;;;5051222;28;20481;-69
2023/12/23 04:34:36;;;;;;;0.82;0.35;;;5.40;99.90;;;;;;5051830;28;20424;-68
2023/12/23 04:37:02;;;;;;;0.20;0.20;;;5.30;99.90;;;;;;5050195;28;20115;-69
2023/12/23 04:39:27;;;;;;;0.20;0.20;;;5.20;99.90;;;;;;5051872;28;20036;-68
2023/12/23 04:41:53;;;;;;;0.52;0.22;;;5.10;99.90;;;;;;5050087;28;20362;-69
2023/12/23 04:44:19;;;;;;;0.43;0.20;;;5.00;99.90;;;;;;5051871;28;20436;-68
2023/12/23 04:46:47;;;;;;;0.20;0.20;;;4.90;99.90;;;;;;5051533;28;20482;-68
2023/12/23 04:49:13;;;;;;;0.17;0.17;;;4.70;99.90;;;;;;5051373;28;20025;-69
2023/12/23 04:51:39;;;;;;;0.45;0.30;;;4.60;99.90;;;;;;5051478;28;20063;-68
2023/12/23 04:54:04;;;;;;;0.10;0.10;;;4.50;99.90;;;;;;5050072;28;20032;-69
2023/12/23 04:56:30;;;;;;;0.22;0.22;;;4.40;99.90;;;;;;5051745;28;20397;-68
2023/12/23 04:58:56;;;;;;;0.85;0.20;;;4.30;99.90;;;;;;5050986;28;20049;-70
2023/12/23 05:01:24;;;;;;;1.73;0.30;;;4.20;99.90;;;;;;5051525;28;20121;-68
2023/12/23 05:03:49;;;;;;;2.75;0.45;;;4.10;99.90;;;;;;5051591;28;20033;-69
2023/12/23 05:06:15;;;;;;;0.10;0.10;;;4.00;99.90;;;;;;5049896;28;20373;-68
2023/12/23 05:08:40;;;;;;;0.10;0.10;;;3.90;99.90;;;;;;5051672;28;20033;-69
2023/12/23 05:11:06;;;;;;;0.20;0.20;;;3.90;99.90;;;;;;5051144;28;20036;-69
2023/12/23 05:13:32;;;;;;;0.30;0.22;;;3.90;99.90;;;;;;5050250;28;20518;-69
2023/12/23 05:15:57;;;;;;;0.20;0.20;;;3.90;99.90;;;;;;5050891;28;20052;-68
2023/12/23 05:18:23;;;;;;;0.30;0.20;;;4.00;99.90;;;;;;5051597;28;20032;-69
2023/12/23 05:20:49;;;;;;;0.30;0.30;;;4.00;99.90;;;;;;5051456;28;20546;-68
2023/12/23 05:23:16;;;;;;;0.30;0.10;;;4.00;99.90;;;;;;5052999;28;20025;-69
2023/12/23 05:25:42;;;;;;;0.45;0.30;;;4.10;99.90;;;;;;5055132;28;20047;-69
2023/12/23 05:28:08;;;;;;;1.38;0.77;;;4.10;99.90;;;;;;5054571;28;20470;-68
2023/12/23 05:30:33;;;;;;;0.55;0.20;;;4.20;99.90;;;;;;5054934;28;20036;-68
2023/12/23 05:32:59;;;;;;;0.85;0.40;;;4.20;99.90;;;;;;5054288;28;20112;-68
2023/12/23 05:35:24;;;;;;;0.55;0.30;;;4.20;99.90;;;;;;5054726;28;20076;-68
2023/12/23 05:37:50;;;;;;;0.65;0.20;;;4.30;99.90;;;;;;5054585;28;20052;-68
2023/12/23 05:40:16;;;;;;;2.10;0.40;;;4.30;99.90;;;;;;5054333;28;20025;-68
2023/12/23 05:42:42;;;;;;;2.58;0.50;;;4.40;99.90;;;;;;5054689;28;20079;-68
2023/12/23 05:45:08;;;;;;;0.50;0.40;;;4.40;99.90;;;;;;5052915;28;20083;-69
2023/12/23 05:47:33;;;;;;;0.98;0.35;;;4.50;99.90;;;;;;5067696;28;20025;-68
2023/12/23 05:49:59;;;;;;;2.03;0.50;;;4.50;99.90;;;;;;5073923;28;20073;-69
2023/12/23 05:52:25;;;;;;;1.27;0.70;;;4.60;99.90;;;;;;5074523;28;20074;-68
2023/12/23 05:54:50;;;;;;;0.47;0.30;;;4.60;99.90;;;;;;5073195;28;20021;-69
2023/12/23 05:57:16;;;;;;;0.45;0.40;;;4.60;99.90;;;;;;5072429;28;20059;-68
2023/12/23 05:59:41;;;;;;;1.92;0.50;;;4.70;99.90;;;;;;5074233;28;20048;-68
2023/12/23 06:02:08;;;;;;;2.38;0.57;;;4.70;99.90;;;;;;5073710;28;20512;-69
2023/12/23 06:04:34;;;;;;;1.05;0.60;;;4.70;99.90;;;;;;5074326;28;20052;-68
2023/12/23 06:06:59;;;;;;;1.63;0.50;;;4.70;99.90;;;;;;5073679;28;20037;-70
2023/12/23 06:09:26;;;;;;;1.10;0.40;;;4.80;99.90;;;;;;5074230;28;20020;-69
2023/12/23 06:11:51;;;;;;;0.75;0.50;;;4.80;99.90;;;;;;5074161;28;20112;-69
2023/12/23 06:14:17;;;;;;;0.43;0.40;;;4.80;99.90;;;;;;5073506;28;20112;-69
2023/12/23 06:16:43;;;;;;;1.60;0.60;;;4.80;99.90;;;;;;5074231;28;20032;-68
2023/12/23 06:19:08;;;;;;;2.35;0.52;;;4.80;99.90;;;;;;5073739;28;20422;-69
2023/12/23 06:21:34;;;;;;;1.67;0.70;;;4.80;99.90;;;;;;5072848;28;20035;-68
2023/12/23 06:24:00;;;;;;;2.75;0.40;;;4.80;99.90;;;;;;5053238;28;20032;-69
2023/12/23 06:26:26;;;;;;;1.17;0.40;;;4.80;99.90;;;;;;5053017;28;20476;-68
2023/12/23 06:28:51;;;;;;;1.58;0.57;;;4.80;99.90;;;;;;5052611;28;20063;-68
2023/12/23 06:31:17;;;;;;;2.28;0.40;;;4.80;99.90;;;;;;5053236;28;20033;-69
2023/12/23 06:33:43;;;;;;;0.30;0.30;;;4.80;99.90;;;;;;5053826;28;20033;-68
2023/12/23 06:36:09;;;;;;;1.45;0.40;;;4.80;99.90;;;;;;5053346;28;20083;-68
2023/12/23 06:38:35;;;;;;;0.57;0.40;;;4.80;99.90;;;;;;5053821;28;20416;-68
2023/12/23 06:41:02;;;;;;;0.85;0.47;;;4.90;99.90;;;;;;5053563;28;20481;-68
2023/12/23 06:43:29;;;;;;;1.08;0.47;;;4.80;99.90;;;;;;5053415;28;20025;-68
2023/12/23 06:45:54;;;;;;;1.27;0.50;;;4.80;99.90;;;;;;5053150;28;20409;-70
2023/12/23 06:48:20;;;;;;;2.22;0.80;;;4.80;99.90;;;;;;5052878;28;20126;-68
2023/12/23 06:50:46;;;;;;;1.08;0.40;;;4.80;99.90;;;;;;5053458;28;20033;-69
2023/12/23 06:53:12;;;;;;;0.55;0.50;;;4.80;99.90;;;;;;5053063;28;20037;-69
2023/12/23 06:55:37;;;;;;;2.42;0.68;;;4.80;99.90;;;;;;5053095;28;20021;-69
2023/12/23 06:58:03;;;;;;;1.63;0.30;;;4.80;99.90;;;;;;5053216;28;20385;-68
2023/12/23 07:00:29;;;;;;;1.35;0.43;;;4.70;99.90;;;;;;5045598;28;20077;-70
2023/12/23 07:02:54;;;;;;;2.13;0.45;;;4.60;99.90;;;;;;5035540;28;20030;-68
2023/12/23 07:05:20;;;;;;;0.57;0.50;;;4.60;99.90;;;;;;5032824;28;20045;-67
2023/12/23 07:07:46;;;;;;;2.50;0.50;;;4.50;99.90;;;;;;5033762;28;20028;-68
2023/12/23 07:10:13;;;;;;;1.08;0.50;;;4.50;99.90;;;;;;5052852;28;20420;-67
2023/12/23 07:12:40;;;;;;;1.17;0.57;;;4.40;99.90;;;;;;5048104;28;20199;-70
2023/12/23 07:15:09;;;;;;;0.90;0.47;;;4.40;99.90;;;;;;5035111;28;20039;-70
2023/12/23 07:17:35;;;;;;;1.90;0.70;;;4.40;99.90;;;;;;5046300;28;20385;-68
2023/12/23 07:20:01;;;;;;;1.85;0.50;;;4.40;99.90;;;;;;5042991;28;20025;-69
2023/12/23 07:22:28;;;;;;;1.67;0.50;;;4.30;99.90;;;;;;5051831;28;20033;-69
2023/12/23 07:24:57;;;;;;;1.65;0.55;;;4.30;99.90;;;;;;5052700;28;20032;-69
2023/12/23 07:27:23;;;;;;;2.00;0.80;;;4.30;99.90;;;;;;5051779;28;20029;-69
2023/12/23 07:29:48;;;;;;;4.00;1.15;;;4.30;99.90;;;;;;5052632;28;20037;-69
2023/12/23 07:32:14;;;;;;;1.92;0.77;;;4.30;99.90;;;;;;5051648;28;20036;-68
2023/12/23 07:34:40;;;;;;;1.25;0.60;;;4.30;99.90;;;;;;5052624;28;20167;-69
2023/12/23 07:37:07;;;;;;;1.52;0.50;;;4.20;99.90;;;;;;5051869;28;20048;-69
2023/12/23 07:39:33;;;;;;;0.90;0.45;;;4.20;99.90;;;;;;5052317;28;20033;-68
2023/12/23 07:41:59;;;;;;;0.82;0.40;;;4.20;99.90;;;;;;5048645;28;20032;-69
2023/12/23 07:44:25;;;;;;;1.48;0.80;;;4.20;99.90;;;;;;5050104;28;20492;-69
2023/12/23 07:46:50;;;;;;;0.70;0.50;;;4.20;99.90;;;;;;5048277;28;20029;-68
2023/12/23 07:49:16;;;;;;;2.08;0.55;;;4.20;99.90;;;;;;5032006;28;20482;-68
2023/12/23 07:51:41;;;;;;;7.68;0.73;;;4.30;99.90;;;;;;5032305;28;20116;-67
2023/12/23 07:54:07;;;;;;;1.33;0.40;;;4.30;99.90;;;;;;5050077;28;20025;-69
2023/12/23 07:56:33;;;;;;;1.00;0.45;;;4.30;99.90;;;;;;5051908;28;20516;-68
2023/12/23 07:58:58;;;;;;;1.65;0.60;;;4.30;99.90;;;;;;5052145;28;20102;-68
2023/12/23 08:01:24;;;;;;;1.40;0.52;;;4.40;99.90;;;;;;5035116;28;20060;-68
2023/12/23 08:03:50;;;;;;;0.47;0.43;;;4.40;99.90;;;;;;5038531;28;20063;-68
2023/12/23 08:06:18;;;;;;;2.45;0.55;;;4.40;99.90;;;;;;5051336;28;20458;-69
2023/12/23 08:08:44;;;;;;;1.77;0.63;;;4.40;99.90;;;;;;5051659;28;20021;-68
2023/12/23 08:11:10;;;;;;;1.92;0.70;;;4.40;99.90;;;;;;5048662;28;20428;-68
2023/12/23 08:13:36;;;;;;;2.20;0.60;;;4.50;99.90;;;;;;5045761;28;20024;-67
2023/12/23 08:16:02;;;;;;;1.50;0.60;;;4.50;99.90;;;;;;5051745;28;20029;-67
2023/12/23 08:18:28;;;;;;;1.60;0.60;;;4.50;99.90;;;;;;5033527;28;20044;-68
2023/12/23 08:20:54;;;;;;;3.72;0.95;;;4.50;99.90;;;;;;5049427;28;20108;-67
2023/12/23 08:23:19;;;;;;;2.25;0.80;;;4.50;99.90;;;;;;5051403;28;20510;-66
2023/12/23 08:25:46;;;;;;;0.70;0.57;;;4.50;99.90;;;;;;5051204;28;20037;-67
2023/12/23 08:28:11;;;;;;;1.70;0.55;;;4.50;99.90;;;;;;5051040;28;20037;-66
2023/12/23 08:30:37;;;;;;;0.60;0.40;;;4.50;99.90;;;;;;5051381;28;20036;-69
2023/12/23 08:33:03;;;;;;;1.38;0.57;;;4.50;99.90;;;;;;5052074;28;20029;-67
2023/12/23 08:35:28;;;;;;;4.18;0.70;;;4.50;99.90;;;;;;5044600;28;20220;-67
2023/12/23 08:37:54;;;;;;;1.33;0.77;;;4.50;99.90;;;;;;5049898;28;20102;-67
2023/12/23 08:40:20;;;;;;;3.72;1.10;;;4.50;99.90;;;;;;5050686;28;20192;-68
2023/12/23 08:42:45;;;;;;;1.30;0.70;;;4.60;99.90;;;;;;5050941;28;20159;-69
2023/12/23 08:45:11;;;;;;;3.88;0.77;;;4.60;99.90;;;;;;5051691;28;20029;-68
2023/12/23 08:47:37;;;;;;;1.35;0.60;;;4.60;99.90;;;;;;5049047;28;20032;-66
2023/12/23 08:50:03;;;;;;;2.13;0.88;;;4.60;99.90;;;;;;5047602;28;20373;-66
2023/12/23 08:52:29;;;;;;;2.55;0.70;;;4.60;99.90;;;;;;5050229;28;20037;-67
2023/12/23 08:54:54;;;;;;;0.82;0.45;;;4.60;99.90;;;;;;5050852;28;20020;-67
2023/12/23 08:57:20;;;;;;;2.85;0.80;;;4.60;99.90;;;;;;5052310;28;20378;-68
2023/12/23 08:59:45;;;;;;;4.47;1.00;;;4.60;99.80;;;;;;5049383;28;20045;-67
2023/12/23 09:02:11;;;;;;;1.33;0.75;;;4.60;99.90;;;;;;5054829;28;20036;-69
2023/12/23 09:04:37;;;;;;;3.75;0.80;;;4.60;99.80;;;;;;5054916;28;20119;-68
2023/12/23 09:07:03;;;;;;;2.55;0.73;;;4.60;99.50;;;;;;5055015;28;20021;-67
2023/12/23 09:09:28;;;;;;;2.08;0.77;;;4.60;99.50;;;;;;5052203;28;20279;-67
2023/12/23 09:11:54;;;;;;;1.38;0.70;;;4.60;99.50;;;;;;5051154;28;20033;-66
2023/12/23 09:14:20;;;;;;;2.38;0.80;;;4.50;99.80;;;;;;5054173;28;20025;-67
2023/12/23 09:16:45;;;;;;;2.13;0.65;;;4.50;99.90;;;;;;5052555;28;20518;-67
2023/12/23 09:19:11;;;;;;;2.72;0.50;;;4.40;99.90;;;;;;5045033;28;20029;-66
2023/12/23 09:21:36;;;;;;;1.38;0.63;;;4.30;99.90;;;;;;5034602;28;20029;-66
2023/12/23 09:24:03;;;;;;;1.30;0.65;;;4.30;99.90;;;;;;5035019;28;20378;-66
2023/12/23 09:26:28;;;;;;;2.70;0.85;;;4.20;99.90;;;;;;5034532;28;20029;-66
2023/12/23 09:28:54;;;;;;;3.75;0.90;;;4.20;99.90;;;;;;5034993;28;20040;-66
2023/12/23 09:31:19;;;;;;;4.93;1.05;;;4.10;99.90;;;;;;5034710;28;20041;-66
2023/12/23 09:33:45;;;;;;;3.13;0.73;;;4.10;99.90;;;;;;5052192;28;20353;-66
2023/12/23 09:36:11;;;;;;;3.53;1.23;;;4.00;99.90;;;;;;5055170;28;20052;-66
2023/12/23 09:38:37;;;;;;;1.50;1.00;;;4.00;99.90;;;;;;5054252;28;20029;-66
2023/12/23 09:41:04;;;;;;;2.30;0.70;;;3.90;99.90;;;;;;5054975;28;20118;-67
2023/12/23 09:43:29;;;;;;;1.95;0.68;;;3.80;99.90;;;;;;5054592;28;20071;-66
2023/12/23 09:45:56;;;;;;;3.35;0.82;;;3.80;99.90;;;;;;5054528;28;20466;-66
2023/12/23 09:48:22;;;;;;;2.33;1.05;;;3.60;99.90;;;;;;5053993;28;20056;-66
2023/12/23 09:50:48;;;;;;;3.42;1.13;;;3.60;99.90;;;;;;5057505;28;20072;-67
2023/12/23 09:53:14;;;;;;;1.92;1.10;;;3.60;99.90;;;;;;5074494;28;20029;-69
2023/12/23 09:55:41;;;;;;;5.13;1.17;;;3.50;99.90;;;;;;5074470;28;20149;-66
2023/12/23 09:58:06;;;;;;;1.63;0.82;;;3.40;99.90;;;;;;5074714;28;20500;-66
2023/12/23 10:00:32;;;;;;;3.00;1.17;;;3.40;99.90;;;;;;5074352;28;20053;-67
2023/12/23 10:02:59;;;;;;;2.85;1.17;;;3.30;99.90;;;;;;5074139;28;20032;-67
2023/12/23 10:05:31;;;;;;;5.97;1.67;;;3.40;99.90;;;;;;5074060;28;20358;-67
2023/12/23 10:07:57;;;;;;;6.28;1.70;;;3.30;99.90;;;;;;5073388;28;20028;-67
2023/12/23 10:10:23;;;;;;;3.13;1.63;;;3.20;99.90;;;;;;5073698;28;20033;-67
2023/12/23 10:12:49;;;;;;;5.40;1.70;;;3.30;99.90;;;;;;5074036;28;20028;-67
2023/12/23 10:15:15;;;;;;;3.35;2.00;;;3.30;99.90;;;;;;5073879;28;20029;-67
2023/12/23 10:17:41;;;;;;;3.53;1.73;;;3.20;99.90;;;;;;5074159;28;20032;-67
2023/12/23 10:20:10;;;;;;;3.90;1.55;;;3.20;99.90;;;;;;5074055;28;20070;-67
2023/12/23 10:22:36;;;;;;;4.32;1.70;;;3.20;99.90;;;;;;5073569;28;20028;-67
2023/12/23 10:25:01;;;;;;;3.42;1.50;;;3.20;99.90;;;;;;5044558;28;20040;-66
2023/12/23 10:27:33;;;;;;;2.42;1.30;;;3.20;99.90;;;;;;5052425;28;20116;-66
2023/12/23 10:30:01;;;;;;;3.55;2.15;;;3.20;99.90;;;;;;5052092;28;20032;-66
2023/12/23 10:32:31;;;;;;;3.00;1.52;;;3.20;99.90;;;;;;5052948;28;20032;-66
2023/12/23 10:34:59;;;;;;;1.45;1.00;;;3.20;99.90;;;;;;5053871;28;20100;-66
2023/12/23 10:37:26;;;;;;;2.10;1.65;;;3.20;99.90;;;;;;5053123;28;20063;-68
2023/12/23 10:40:21;;;;;;;2.22;1.17;;;3.10;99.90;;;;;;5053161;28;20025;-67
2023/12/23 10:42:48;;;;;;;4.32;1.10;;;3.20;99.90;;;;;;5053167;28;20359;-67
2023/12/23 10:45:14;;;;;;;2.35;1.20;;;3.10;99.90;;;;;;5053375;28;20021;-65
2023/12/23 10:47:41;;;;;;;2.65;1.30;;;3.10;99.90;;;;;;5052945;28;20380;-66
2023/12/23 10:50:09;;;;;;;2.85;1.10;;;3.10;99.90;;;;;;5053497;28;20021;-65
2023/12/23 10:52:36;;;;;;;1.30;1.20;;;3.10;99.90;;;;;;5052887;28;20048;-66
2023/12/23 10:55:02;;;;;;;3.45;1.20;;;3.10;99.90;;;;;;5053366;28;20071;-65
2023/12/23 10:57:30;;;;;;;1.83;1.30;;;3.10;99.90;;;;;;5052621;28;20029;-67
2023/12/23 10:59:56;;;;;;;2.15;1.40;;;3.10;99.90;;;;;;5052732;28;20489;-66
2023/12/23 11:02:34;;;;;;;3.28;1.52;;;3.10;99.90;;;;;;5052564;28;20044;-66
2023/12/23 11:05:04;;;;;;;2.58;1.52;;;3.10;99.90;;;;;;5053295;28;20151;-66
2023/12/23 11:07:42;;;;;;;3.22;1.65;;;3.00;99.90;;;;;;5052806;28;20044;-67
2023/12/23 11:10:09;;;;;;;2.25;1.50;;;3.00;99.90;;;;;;5053101;28;20021;-66
2023/12/23 11:12:35;;;;;;;3.78;1.33;;;2.90;99.90;;;;;;5052534;28;20440;-66
2023/12/23 11:15:02;;;;;;;2.30;1.52;;;2.90;99.90;;;;;;5052928;28;20025;-66
2023/12/23 11:17:29;;;;;;;2.13;1.80;;;2.90;99.90;;;;;;5052391;28;20025;-67
2023/12/23 11:20:06;;;;;;;5.03;2.92;;;3.00;99.90;;;;;;5051455;28;20430;-67
2023/12/23 11:22:38;;;;;;;3.22;1.65;;;2.90;99.90;;;;;;5052381;28;20060;-66
2023/12/23 11:25:04;;;;;;;2.17;1.42;;;3.00;99.90;;;;;;5052207;28;20378;-66
2023/12/23 11:27:33;;;;;;;2.03;1.02;;;2.90;99.90;;;;;;5052219;28;20017;-67
2023/12/23 11:30:07;;;;;;;1.23;0.90;;;3.00;99.90;;;;;;5052373;28;20027;-67
2023/12/23 11:32:36;;;;;;;1.45;0.90;;;2.90;99.90;;;;;;5052222;28;20033;-67
2023/12/23 11:35:03;;;;;;;1.00;0.90;;;3.00;99.90;;;;;;5052619;28;20127;-66
2023/12/23 11:37:51;;;;;;;1.02;0.80;;;3.00;99.90;;;;;;5052272;28;20029;-67
2023/12/23 11:40:17;;;;;;;1.60;0.80;;;3.00;99.90;;;;;;5052279;28;20029;-67
2023/12/23 11:42:43;;;;;;;0.88;0.80;;;3.00;99.90;;;;;;5051693;28;20044;-67
2023/12/23 11:45:11;;;;;;;1.20;0.80;;;3.00;99.90;;;;;;5052413;28;20390;-66
2023/12/23 11:47:37;;;;;;;1.00;0.70;;;2.90;99.90;;;;;;5052063;28;20112;-66
2023/12/23 11:50:03;;;;;;;2.00;0.90;;;2.90;99.90;;;;;;5052505;28;20120;-67
2023/12/23 11:52:28;;;;;;;1.10;1.00;;;2.90;99.90;;;;;;5051852;28;20037;-67
2023/12/23 11:54:54;;;;;;;5.95;3.97;;;2.90;99.90;;;;;;5052068;28;20083;-67
2023/12/23 11:57:20;;;;;;;1.77;1.23;;;2.90;99.90;;;;;;5055944;28;20074;-66
2023/12/23 11:59:46;;;;;;;1.38;1.00;;;2.90;99.90;;;;;;5071412;28;20056;-66
2023/12/23 12:02:11;;;;;;;2.28;1.08;;;2.80;99.90;;;;;;5072322;28;20466;-65
2023/12/23 12:04:37;;;;;;;1.95;0.90;;;2.80;99.90;;;;;;5071440;28;20415;-66
2023/12/23 12:07:03;;;;;;;2.00;0.75;;;2.80;99.90;;;;;;5072281;28;20029;-66
2023/12/23 12:09:29;;;;;;;1.08;0.80;;;2.80;99.90;;;;;;5071731;28;20020;-66
2023/12/23 12:11:55;;;;;;;0.85;0.70;;;2.70;99.90;;;;;;5072282;28;20116;-66
2023/12/23 12:14:20;;;;;;;1.02;0.90;;;2.70;99.90;;;;;;5072156;28;20064;-66
2023/12/23 12:16:46;;;;;;;1.70;0.90;;;2.70;99.90;;;;;;5071652;28;20472;-66
2023/12/23 12:19:13;;;;;;;0.98;0.88;;;2.70;99.90;;;;;;5071809;28;20085;-65
2023/12/23 12:21:39;;;;;;;1.00;0.80;;;2.70;99.90;;;;;;5071853;28;20429;-66
2023/12/23 12:24:05;;;;;;;0.80;0.80;;;2.70;99.90;;;;;;5071968;28;20029;-66
2023/12/23 12:26:31;;;;;;;0.80;0.70;;;2.70;99.90;;;;;;5071609;28;20021;-66
2023/12/23 12:28:57;;;;;;;0.80;0.80;;;2.70;99.90;;;;;;5065320;28;20393;-66
2023/12/23 12:31:22;;;;;;;1.20;0.90;;;2.70;99.90;;;;;;5052872;28;20044;-67
2023/12/23 12:33:50;;;;;;;1.67;1.23;;;2.70;99.90;;;;;;5055561;28;20040;-66
2023/12/23 12:36:17;;;;;;;1.50;1.20;;;2.70;99.90;;;;;;5055556;28;20477;-66
2023/12/23 12:38:44;;;;;;;2.05;1.35;;;2.70;99.90;;;;;;5055196;28;20022;-66
2023/12/23 12:41:11;;;;;;;1.58;1.08;;;2.70;99.90;;;;;;5055343;28;20083;-66
2023/12/23 12:43:45;;;;;;;1.92;1.60;;;2.70;99.90;;;;;;5055107;28;20414;-67
2023/12/23 12:46:14;;;;;;;2.65;1.25;;;2.70;99.90;;;;;;5054577;28;20519;-67
2023/12/23 12:48:40;;;;;;;2.05;1.25;;;2.70;99.90;;;;;;5055293;28;20061;-67
2023/12/23 12:51:06;;;;;;;2.22;1.30;;;2.80;99.90;;;;;;5055735;28;20072;-67
2023/12/23 12:53:31;;;;;;;2.53;1.50;;;2.80;99.90;;;;;;5055265;28;20029;-65
2023/12/23 12:56:11;;;;;;;2.00;1.50;;;2.90;99.90;;;;;;5055637;28;20517;-66